createdAt,value
2023-02-27T00:00:14.349Z,78.11
2023-02-27T00:02:18.998Z,77.77
2023-02-27T00:04:22.195Z,78.02
2023-02-27T00:06:25.692Z,78.33
2023-02-27T00:08:28.887Z,78.45
2023-02-27T00:10:32.193Z,78.48
2023-02-27T00:12:37.895Z,78.30
2023-02-27T00:14:41.619Z,78.41
2023-02-27T00:16:44.954Z,79.10
2023-02-27T00:18:49.576Z,78.90
2023-02-27T00:20:52.741Z,78.80
2023-02-27T00:22:56.017Z,78.40
2023-02-27T00:25:01.189Z,78.46
2023-02-27T00:27:05.116Z,78.44
2023-02-27T00:29:08.638Z,78.91
2023-02-27T00:31:11.887Z,78.07
2023-02-27T00:33:23.729Z,78.45
2023-02-27T00:35:28.695Z,78.54
2023-02-27T00:37:31.905Z,78.31
2023-02-27T00:39:35.395Z,78.48
2023-02-27T00:41:38.550Z,78.43
2023-02-27T00:43:41.749Z,78.61
2023-02-27T00:45:45.102Z,78.78
2023-02-27T00:47:49.612Z,78.91
2023-02-27T00:49:52.788Z,78.88
2023-02-27T00:51:57.330Z,78.79
2023-02-27T00:54:00.507Z,79.14
2023-02-27T00:56:07.890Z,79.28
2023-02-27T00:58:11.118Z,79.02
2023-02-27T01:00:18.287Z,78.97
2023-02-27T01:02:21.546Z,79.13
2023-02-27T01:04:24.680Z,79.30
2023-02-27T01:06:29.945Z,79.12
2023-02-27T01:08:34.556Z,79.02
2023-02-27T01:10:41.642Z,79.00
2023-02-27T01:12:44.880Z,78.93
2023-02-27T01:14:48.037Z,79.09
2023-02-27T01:16:53.858Z,79.53
2023-02-27T01:18:57.050Z,79.64
2023-02-27T01:21:05.093Z,79.63
2023-02-27T01:23:08.209Z,79.92
2023-02-27T01:25:12.877Z,79.53
2023-02-27T01:27:16.020Z,79.97
2023-02-27T01:29:19.147Z,80.05
2023-02-27T01:31:22.509Z,79.86
2023-02-27T01:33:25.739Z,79.70
2023-02-27T01:35:31.362Z,80.00
2023-02-27T01:37:34.596Z,80.08
2023-02-27T01:39:37.959Z,80.07
2023-02-27T01:41:45.090Z,80.09
2023-02-27T01:43:56.929Z,79.78
2023-02-27T01:46:00.974Z,80.21
2023-02-27T01:48:12.995Z,80.07
2023-02-27T01:50:17.427Z,80.15
2023-02-27T01:52:20.564Z,80.18
2023-02-27T01:54:29.865Z,80.32
2023-02-27T01:56:33.866Z,80.39
2023-02-27T01:58:39.006Z,80.04
2023-02-27T02:00:42.518Z,80.16
2023-02-27T02:02:56.243Z,80.11
2023-02-27T02:04:59.730Z,79.83
2023-02-27T02:07:06.060Z,79.91
2023-02-27T02:09:11.190Z,79.75
2023-02-27T02:11:15.213Z,79.92
2023-02-27T02:13:18.858Z,80.03
2023-02-27T02:15:29.096Z,79.97
2023-02-27T02:17:40.218Z,79.95
2023-02-27T02:20:10.566Z,79.99
2023-02-27T02:22:54.937Z,80.10
2023-02-27T02:25:38.656Z,80.30
2023-02-27T02:27:49.725Z,79.83
2023-02-27T02:30:22.692Z,79.93
2023-02-27T02:32:44.183Z,80.21
2023-02-27T02:35:19.073Z,79.96
2023-02-27T02:37:54.996Z,80.34
2023-02-27T02:40:21.879Z,80.55
2023-02-27T02:42:27.213Z,80.28
2023-02-27T02:44:37.605Z,80.24
2023-02-27T02:46:46.523Z,80.38
2023-02-27T02:48:55.200Z,80.40
2023-02-27T02:51:05.966Z,80.23
2023-02-27T02:53:12.902Z,80.26
2023-02-27T02:55:23.349Z,80.25
2023-02-27T02:57:33.101Z,80.45
2023-02-27T02:59:40.320Z,80.36
2023-02-27T03:01:46.231Z,80.24
2023-02-27T03:03:54.062Z,80.05
2023-02-27T03:06:03.942Z,80.16
2023-02-27T03:08:10.677Z,79.91
2023-02-27T03:10:17.175Z,79.93
2023-02-27T03:12:24.430Z,79.91
2023-02-27T03:14:31.829Z,79.77
2023-02-27T03:16:41.190Z,79.84
2023-02-27T03:18:48.218Z,79.85
2023-02-27T03:20:54.392Z,79.91
2023-02-27T03:23:02.662Z,80.01
2023-02-27T03:25:08.469Z,79.93
2023-02-27T03:27:14.615Z,79.66
2023-02-27T03:29:21.854Z,79.42
2023-02-27T03:31:32.588Z,79.86
2023-02-27T03:33:39.343Z,79.89
2023-02-27T03:35:48.958Z,79.14
2023-02-27T03:37:59.551Z,79.80
2023-02-27T03:40:09.235Z,79.90
2023-02-27T03:42:17.789Z,80.03
2023-02-27T03:44:55.773Z,80.26
2023-02-27T03:46:59.261Z,79.82
2023-02-27T03:49:02.529Z,79.86
2023-02-27T03:51:06.249Z,79.92
2023-02-27T03:53:14.840Z,80.00
2023-02-27T03:55:20.279Z,80.51
2023-02-27T03:57:26.573Z,80.21
2023-02-27T03:59:30.995Z,80.15
2023-02-27T04:01:35.836Z,80.48
2023-02-27T04:03:45.129Z,80.55
2023-02-27T04:05:52.303Z,80.77
2023-02-27T04:08:08.555Z,80.94
2023-02-27T04:10:40.968Z,80.67
2023-02-27T04:13:04.703Z,80.98
2023-02-27T04:15:15.807Z,81.03
2023-02-27T04:17:23.672Z,81.23
2023-02-27T04:19:37.973Z,80.83
2023-02-27T04:21:46.025Z,80.56
2023-02-27T04:23:56.727Z,80.46
2023-02-27T04:26:10.941Z,80.55
2023-02-27T04:28:18.632Z,80.40
2023-02-27T04:30:27.471Z,80.28
2023-02-27T04:32:36.959Z,80.60
2023-02-27T04:34:43.462Z,80.34
2023-02-27T04:36:50.128Z,80.38
2023-02-27T04:38:58.387Z,80.25
2023-02-27T04:41:06.728Z,80.44
2023-02-27T04:43:13.714Z,80.25
2023-02-27T04:45:20.413Z,80.27
2023-02-27T04:47:26.495Z,80.41
2023-02-27T04:49:34.597Z,80.61
2023-02-27T04:51:41.584Z,80.60
2023-02-27T04:53:49.189Z,80.78
2023-02-27T04:55:55.778Z,81.09
2023-02-27T04:58:01.812Z,81.16
2023-02-27T05:00:09.370Z,80.63
2023-02-27T05:02:14.870Z,80.78
2023-02-27T05:04:20.910Z,81.17
2023-02-27T05:06:29.232Z,80.96
2023-02-27T05:08:36.810Z,81.55
2023-02-27T05:10:44.280Z,81.50
2023-02-27T05:12:51.938Z,81.96
2023-02-27T05:14:57.835Z,81.74
2023-02-27T05:17:06.211Z,81.56
2023-02-27T05:19:09.976Z,81.99
2023-02-27T05:21:26.445Z,82.27
2023-02-27T05:23:36.355Z,82.03
2023-02-27T05:25:46.093Z,81.92
2023-02-27T05:27:54.405Z,81.91
2023-02-27T05:30:00.782Z,81.79
2023-02-27T05:32:08.146Z,81.75
2023-02-27T05:34:15.455Z,81.89
2023-02-27T05:36:22.031Z,82.48
2023-02-27T05:38:28.860Z,82.08
2023-02-27T05:40:34.978Z,81.98
2023-02-27T05:42:41.774Z,82.17
2023-02-27T05:44:49.101Z,81.66
2023-02-27T05:46:54.959Z,82.11
2023-02-27T05:48:59.581Z,82.24
2023-02-27T05:51:04.967Z,81.98
2023-02-27T05:53:11.000Z,82.23
2023-02-27T05:55:19.696Z,82.51
2023-02-27T05:57:26.105Z,82.41
2023-02-27T05:59:32.834Z,82.28
2023-02-27T06:01:36.360Z,82.58
2023-02-27T06:03:40.953Z,83.05
2023-02-27T06:05:45.110Z,82.84
2023-02-27T06:07:49.189Z,82.74
2023-02-27T06:09:52.742Z,82.82
2023-02-27T06:11:57.315Z,82.80
2023-02-27T06:14:00.486Z,82.73
2023-02-27T06:16:03.890Z,82.85
2023-02-27T06:18:07.448Z,82.72
2023-02-27T06:20:12.589Z,82.30
2023-02-27T06:22:16.143Z,82.57
2023-02-27T06:24:21.899Z,82.62
2023-02-27T06:26:26.249Z,82.78
2023-02-27T06:28:31.413Z,82.62
2023-02-27T06:30:38.321Z,82.48
2023-02-27T06:32:41.782Z,82.03
2023-02-27T06:34:50.773Z,81.63
2023-02-27T06:36:54.300Z,81.33
2023-02-27T06:38:58.874Z,80.86
2023-02-27T06:41:03.806Z,80.00
2023-02-27T06:43:07.473Z,79.76
2023-02-27T06:45:14.561Z,79.70
2023-02-27T06:47:20.573Z,79.38
2023-02-27T06:49:26.471Z,78.79
2023-02-27T06:51:30.929Z,77.76
2023-02-27T06:53:36.977Z,76.85
2023-02-27T06:55:42.267Z,76.50
2023-02-27T06:57:46.482Z,76.32
2023-02-27T06:59:50.476Z,75.67
2023-02-27T07:01:55.304Z,74.80
2023-02-27T07:04:03.638Z,74.31
2023-02-27T07:06:07.716Z,73.79
2023-02-27T07:08:12.481Z,74.29
2023-02-27T07:10:15.899Z,72.96
2023-02-27T07:12:19.291Z,72.23
2023-02-27T07:14:22.883Z,72.26
2023-02-27T07:16:26.388Z,72.12
2023-02-27T07:18:31.386Z,72.41
2023-02-27T07:20:34.738Z,72.10
2023-02-27T07:22:38.122Z,72.00
2023-02-27T07:24:42.072Z,71.27
2023-02-27T07:26:45.657Z,70.76
2023-02-27T07:28:48.954Z,70.67
2023-02-27T07:30:55.486Z,69.89
2023-02-27T07:32:58.624Z,70.18
2023-02-27T07:35:04.228Z,70.18
2023-02-27T07:37:08.090Z,70.88
2023-02-27T07:39:13.165Z,69.59
2023-02-27T07:41:29.512Z,69.76
2023-02-27T07:43:35.811Z,69.16
2023-02-27T07:45:39.223Z,69.05
2023-02-27T07:47:42.365Z,68.48
2023-02-27T07:49:45.608Z,67.66
2023-02-27T07:51:50.003Z,68.27
2023-02-27T07:53:53.174Z,68.48
2023-02-27T07:55:56.221Z,66.56
2023-02-27T07:57:59.336Z,66.93
2023-02-27T08:00:02.514Z,66.74
2023-02-27T08:02:15.578Z,65.92
2023-02-27T08:04:18.698Z,65.80
2023-02-27T08:06:21.866Z,66.35
2023-02-27T08:08:26.472Z,66.35
2023-02-27T08:10:29.983Z,66.63
2023-02-27T08:12:33.131Z,65.64
2023-02-27T08:14:36.236Z,65.13
2023-02-27T08:16:39.363Z,65.64
2023-02-27T08:18:42.568Z,65.25
2023-02-27T08:20:45.591Z,65.21
2023-02-27T08:22:48.720Z,65.68
2023-02-27T08:24:53.209Z,64.29
2023-02-27T08:26:57.308Z,64.13
2023-02-27T08:29:00.520Z,64.90
2023-02-27T08:31:03.756Z,64.50
2023-02-27T08:33:07.025Z,65.48
2023-02-27T08:35:10.796Z,65.00
2023-02-27T08:37:14.105Z,63.74
2023-02-27T08:39:17.851Z,64.39
2023-02-27T08:41:22.810Z,63.80
2023-02-27T08:43:26.066Z,63.93
2023-02-27T08:45:29.394Z,63.77
2023-02-27T08:47:32.630Z,63.20
2023-02-27T08:49:35.905Z,62.90
2023-02-27T08:51:39.111Z,63.55
2023-02-27T08:53:42.424Z,62.67
2023-02-27T08:55:45.743Z,62.82
2023-02-27T08:57:50.278Z,62.76
2023-02-27T08:59:53.636Z,62.46
2023-02-27T09:01:56.872Z,63.00
2023-02-27T09:03:59.920Z,63.56
2023-02-27T09:06:03.252Z,62.56
2023-02-27T09:08:07.159Z,62.98
2023-02-27T09:10:12.335Z,62.47
2023-02-27T09:12:15.845Z,61.88
2023-02-27T09:14:20.470Z,61.94
2023-02-27T09:16:24.258Z,62.27
2023-02-27T09:18:27.458Z,61.34
2023-02-27T09:20:31.824Z,62.57
2023-02-27T09:22:34.954Z,62.21
2023-02-27T09:24:38.053Z,61.51
2023-02-27T09:26:46.068Z,62.10
2023-02-27T09:28:50.290Z,62.45
2023-02-27T09:30:54.851Z,61.26
2023-02-27T09:32:58.006Z,60.83
2023-02-27T09:35:01.026Z,62.15
2023-02-27T09:37:04.256Z,61.28
2023-02-27T09:39:09.721Z,61.71
2023-02-27T09:41:32.246Z,60.80
2023-02-27T09:43:38.373Z,60.73
2023-02-27T09:45:41.666Z,58.94
2023-02-27T09:47:50.748Z,59.46
2023-02-27T09:50:00.125Z,59.62
2023-02-27T09:52:03.527Z,59.70
2023-02-27T09:54:06.622Z,60.45
2023-02-27T09:56:15.071Z,58.99
2023-02-27T09:58:32.187Z,59.86
2023-02-27T10:00:45.991Z,59.56
2023-02-27T10:02:56.492Z,58.62
2023-02-27T10:05:04.571Z,59.46
2023-02-27T10:07:14.087Z,60.25
2023-02-27T10:09:26.197Z,58.38
2023-02-27T10:11:35.352Z,58.38
2023-02-27T10:13:47.906Z,58.55
2023-02-27T10:15:53.600Z,58.58
2023-02-27T10:18:09.517Z,58.21
2023-02-27T10:20:25.536Z,58.08
2023-02-27T10:22:31.673Z,57.81
2023-02-27T10:24:38.440Z,58.32
2023-02-27T10:26:43.957Z,59.59
2023-02-27T10:28:47.072Z,59.21
2023-02-27T10:30:51.880Z,58.09
2023-02-27T10:32:58.637Z,58.17
2023-02-27T10:35:08.903Z,57.75
2023-02-27T10:37:16.111Z,59.13
2023-02-27T10:39:20.981Z,58.50
2023-02-27T10:41:24.801Z,58.02
2023-02-27T10:43:27.894Z,57.55
2023-02-27T10:45:31.100Z,58.86
2023-02-27T10:47:34.233Z,57.54
2023-02-27T10:49:39.216Z,57.58
2023-02-27T10:51:44.400Z,57.38
2023-02-27T10:53:47.705Z,56.20
2023-02-27T10:56:00.312Z,57.46
2023-02-27T10:58:04.643Z,58.76
2023-02-27T11:00:12.401Z,56.78
2023-02-27T11:02:23.826Z,58.34
2023-02-27T11:04:30.022Z,58.01
2023-02-27T11:06:34.617Z,58.24
2023-02-27T11:08:37.997Z,57.28
2023-02-27T11:10:55.008Z,57.84
2023-02-27T11:13:00.839Z,56.84
2023-02-27T11:15:22.899Z,58.37
2023-02-27T11:17:28.997Z,58.24
2023-02-27T11:19:35.146Z,58.06
2023-02-27T11:21:39.661Z,58.34
2023-02-27T11:23:52.074Z,57.94
2023-02-27T11:26:11.868Z,58.39
2023-02-27T11:28:22.333Z,57.82
2023-02-27T11:30:28.151Z,58.73
2023-02-27T11:32:37.661Z,58.50
2023-02-27T11:34:42.463Z,59.10
2023-02-27T11:36:48.567Z,58.81
2023-02-27T11:38:53.992Z,58.20
2023-02-27T11:40:58.444Z,58.17
2023-02-27T11:43:05.189Z,58.38
2023-02-27T11:46:04.713Z,59.69
2023-02-27T11:47:52.613Z,58.30
2023-02-27T11:50:22.191Z,57.64
2023-02-27T11:52:31.125Z,57.39
2023-02-27T11:54:39.426Z,57.99
2023-02-27T11:56:45.431Z,59.64
2023-02-27T11:58:56.644Z,58.81
2023-02-27T12:01:02.264Z,59.16
2023-02-27T12:03:11.839Z,58.40
2023-02-27T12:05:17.921Z,57.81
2023-02-27T12:07:24.631Z,59.05
2023-02-27T12:09:36.494Z,58.26
2023-02-27T12:11:43.240Z,58.33
2023-02-27T12:13:49.175Z,58.87
2023-02-27T12:15:57.124Z,60.32
2023-02-27T12:18:11.175Z,60.38
2023-02-27T12:20:24.106Z,59.22
2023-02-27T12:22:30.673Z,59.34
2023-02-27T12:24:40.444Z,59.16
2023-02-27T12:26:45.710Z,58.28
2023-02-27T12:28:56.174Z,58.71
2023-02-27T12:31:09.100Z,59.08
2023-02-27T12:33:19.853Z,57.69
2023-02-27T12:35:25.597Z,58.22
2023-02-27T12:37:30.192Z,58.98
2023-02-27T12:39:36.210Z,59.79
2023-02-27T12:41:47.707Z,57.70
2023-02-27T12:43:56.895Z,57.34
2023-02-27T12:46:22.540Z,58.98
2023-02-27T12:48:36.993Z,58.43
2023-02-27T12:50:51.094Z,57.30
2023-02-27T12:53:06.261Z,58.46
2023-02-27T12:55:15.194Z,57.33
2023-02-27T12:57:33.547Z,58.88
2023-02-27T12:59:49.448Z,57.77
2023-02-27T13:01:59.263Z,58.21
2023-02-27T13:04:06.302Z,59.49
2023-02-27T13:06:15.457Z,57.98
2023-02-27T13:08:43.351Z,59.07
2023-02-27T13:10:51.471Z,58.75
2023-02-27T13:12:58.260Z,57.98
2023-02-27T13:15:05.285Z,57.12
2023-02-27T13:17:15.188Z,57.47
2023-02-27T13:19:24.050Z,58.03
2023-02-27T13:21:31.595Z,56.50
2023-02-27T13:23:43.325Z,55.99
2023-02-27T13:25:51.025Z,56.90
2023-02-27T13:27:56.543Z,57.53
2023-02-27T13:30:10.603Z,56.64
2023-02-27T13:32:32.706Z,56.13
2023-02-27T13:34:45.841Z,56.67
2023-02-27T13:36:52.339Z,57.15
2023-02-27T13:38:56.205Z,57.26
2023-02-27T13:41:38.284Z,58.94
2023-02-27T13:43:51.780Z,58.18
2023-02-27T13:45:58.082Z,58.43
2023-02-27T13:48:01.439Z,59.27
2023-02-27T13:50:06.530Z,56.91
2023-02-27T13:52:10.220Z,57.17
2023-02-27T13:54:33.635Z,57.71
2023-02-27T13:56:38.139Z,56.16
2023-02-27T13:58:41.281Z,56.28
2023-02-27T14:00:44.691Z,56.70
2023-02-27T14:02:59.868Z,57.95
2023-02-27T14:05:07.098Z,56.55
2023-02-27T14:07:14.043Z,56.84
2023-02-27T14:09:22.097Z,57.75
2023-02-27T14:11:26.719Z,57.82
2023-02-27T14:14:00.489Z,58.28
2023-02-27T14:16:04.704Z,57.72
2023-02-27T14:18:49.837Z,57.26
2023-02-27T14:20:53.146Z,57.91
2023-02-27T14:23:13.780Z,58.04
2023-02-27T14:25:27.219Z,57.65
2023-02-27T14:27:33.491Z,56.96
2023-02-27T14:29:38.260Z,56.60
2023-02-27T14:31:41.922Z,56.35
2023-02-27T14:33:49.765Z,57.63
2023-02-27T14:36:03.982Z,57.89
2023-02-27T14:38:10.702Z,57.21
2023-02-27T14:40:28.071Z,58.32
2023-02-27T14:42:45.899Z,56.13
2023-02-27T14:44:51.616Z,56.94
2023-02-27T14:46:56.535Z,58.32
2023-02-27T14:49:01.800Z,56.06
2023-02-27T14:51:05.771Z,56.90
2023-02-27T14:53:23.385Z,56.96
2023-02-27T14:55:31.517Z,56.14
2023-02-27T14:57:35.479Z,56.57
2023-02-27T14:59:43.885Z,55.62
2023-02-27T15:01:48.595Z,55.51
2023-02-27T15:03:53.934Z,56.84
2023-02-27T15:06:01.364Z,56.45
2023-02-27T15:08:05.011Z,57.13
2023-02-27T15:10:11.903Z,57.02
2023-02-27T15:12:19.886Z,56.96
2023-02-27T15:14:25.521Z,56.70
2023-02-27T15:16:38.392Z,57.32
2023-02-27T15:18:43.322Z,57.06
2023-02-27T15:20:47.635Z,57.94
2023-02-27T15:22:50.995Z,58.09
2023-02-27T15:24:55.582Z,57.37
2023-02-27T15:27:01.319Z,56.48
2023-02-27T15:29:05.496Z,56.45
2023-02-27T15:31:10.917Z,56.79
2023-02-27T15:33:16.321Z,57.20
2023-02-27T15:35:23.528Z,57.86
2023-02-27T15:37:28.865Z,57.75
2023-02-27T15:39:33.778Z,56.80
2023-02-27T15:41:37.414Z,56.88
2023-02-27T15:43:42.008Z,57.56
2023-02-27T15:45:45.351Z,56.65
2023-02-27T15:47:49.168Z,56.85
2023-02-27T15:50:00.846Z,57.04
2023-02-27T15:52:11.149Z,56.70
2023-02-27T15:54:14.806Z,56.56
2023-02-27T15:56:19.389Z,56.12
2023-02-27T15:58:25.651Z,56.22
2023-02-27T16:00:29.810Z,55.84
2023-02-27T16:02:40.486Z,57.06
2023-02-27T16:04:46.239Z,57.33
2023-02-27T16:06:55.190Z,57.82
2023-02-27T16:09:01.334Z,57.84
2023-02-27T16:11:04.579Z,57.52
2023-02-27T16:13:31.181Z,58.29
2023-02-27T16:15:36.389Z,58.21
2023-02-27T16:17:39.653Z,58.11
2023-02-27T16:19:42.986Z,58.46
2023-02-27T16:22:04.234Z,58.19
2023-02-27T16:24:22.302Z,58.86
2023-02-27T16:26:31.756Z,59.14
2023-02-27T16:28:37.064Z,58.82
2023-02-27T16:30:40.944Z,58.86
2023-02-27T16:32:44.983Z,59.09
2023-02-27T16:34:48.297Z,58.80
2023-02-27T16:36:55.502Z,58.82
2023-02-27T16:38:58.875Z,58.30
2023-02-27T16:41:03.701Z,58.69
2023-02-27T16:43:06.932Z,58.59
2023-02-27T16:45:15.231Z,58.76
2023-02-27T16:47:18.440Z,58.90
2023-02-27T16:49:22.601Z,58.33
2023-02-27T16:51:28.654Z,58.79
2023-02-27T16:53:32.178Z,58.83
2023-02-27T16:55:35.532Z,58.83
2023-02-27T16:57:40.039Z,58.50
2023-02-27T16:59:44.101Z,58.78
2023-02-27T17:01:47.345Z,58.35
2023-02-27T17:03:50.375Z,58.11
2023-02-27T17:05:54.194Z,58.56
2023-02-27T17:07:57.386Z,58.44
2023-02-27T17:10:01.097Z,58.87
2023-02-27T17:12:04.322Z,59.20
2023-02-27T17:14:08.860Z,58.91
2023-02-27T17:16:12.744Z,59.54
2023-02-27T17:18:16.231Z,58.65
2023-02-27T17:20:19.509Z,58.67
2023-02-27T17:22:22.639Z,58.86
2023-02-27T17:24:25.862Z,58.30
2023-02-27T17:26:29.443Z,58.52
2023-02-27T17:28:32.864Z,59.11
2023-02-27T17:30:37.769Z,58.71
2023-02-27T17:32:41.154Z,59.11
2023-02-27T17:34:44.285Z,59.03
2023-02-27T17:36:47.637Z,59.05
2023-02-27T17:38:55.358Z,59.10
2023-02-27T17:40:58.573Z,59.16
2023-02-27T17:43:01.964Z,58.97
2023-02-27T17:45:06.481Z,58.80
2023-02-27T17:47:11.013Z,59.51
2023-02-27T17:49:14.161Z,59.54
2023-02-27T17:51:18.705Z,59.62
2023-02-27T17:53:21.844Z,59.20
2023-02-27T17:55:27.820Z,59.50
2023-02-27T17:57:31.064Z,59.40
2023-02-27T17:59:34.433Z,58.93
2023-02-27T18:01:38.069Z,59.23
2023-02-27T18:03:45.559Z,58.98
2023-02-27T18:05:50.026Z,59.23
2023-02-27T18:07:56.847Z,59.14
2023-02-27T18:09:59.997Z,59.21
2023-02-27T18:12:03.317Z,59.08
2023-02-27T18:14:06.927Z,58.97
2023-02-27T18:16:11.169Z,58.77
2023-02-27T18:18:14.695Z,59.39
2023-02-27T18:20:20.599Z,59.86
2023-02-27T18:22:23.841Z,59.08
2023-02-27T18:24:26.945Z,58.65
2023-02-27T18:26:31.969Z,58.78
2023-02-27T18:28:35.176Z,58.45
2023-02-27T18:30:39.813Z,58.07
2023-02-27T18:32:43.333Z,58.85
2023-02-27T18:34:46.618Z,57.94
2023-02-27T18:36:51.938Z,57.91
2023-02-27T18:38:55.287Z,57.68
2023-02-27T18:40:58.745Z,57.04
2023-02-27T18:43:01.901Z,58.12
2023-02-27T18:45:06.044Z,58.06
2023-02-27T18:47:09.745Z,57.72
2023-02-27T18:49:12.954Z,57.70
2023-02-27T18:51:17.347Z,57.70
2023-02-27T18:53:21.936Z,58.73
2023-02-27T18:55:25.109Z,57.98
2023-02-27T18:57:28.318Z,58.48
2023-02-27T18:59:31.394Z,58.43
2023-02-27T19:01:36.229Z,58.71
2023-02-27T19:03:39.622Z,58.87
2023-02-27T19:05:42.865Z,59.63
2023-02-27T19:07:46.565Z,59.43
2023-02-27T19:09:51.094Z,59.50
2023-02-27T19:11:54.548Z,59.15
2023-02-27T19:13:58.240Z,59.15
2023-02-27T19:16:04.658Z,58.66
2023-02-27T19:18:08.088Z,59.20
2023-02-27T19:20:16.501Z,59.49
2023-02-27T19:22:20.182Z,59.42
2023-02-27T19:24:23.742Z,60.01
2023-02-27T19:26:28.684Z,59.38
2023-02-27T19:28:32.094Z,59.94
2023-02-27T19:30:35.285Z,59.67
2023-02-27T19:32:38.374Z,59.74
2023-02-27T19:34:42.786Z,59.73
2023-02-27T19:36:46.088Z,60.21
2023-02-27T19:38:49.272Z,60.04
2023-02-27T19:40:52.379Z,59.79
2023-02-27T19:42:57.275Z,60.04
2023-02-27T19:45:00.351Z,59.54
2023-02-27T19:47:03.684Z,59.47
2023-02-27T19:49:07.130Z,59.80
2023-02-27T19:51:12.160Z,59.77
2023-02-27T19:53:15.324Z,59.87
2023-02-27T19:55:18.446Z,59.94
2023-02-27T19:57:22.066Z,59.52
2023-02-27T19:59:26.559Z,59.40
2023-02-27T20:01:32.664Z,59.56
2023-02-27T20:03:36.432Z,59.44
2023-02-27T20:05:39.832Z,59.69
2023-02-27T20:07:43.425Z,59.80
2023-02-27T20:09:46.535Z,59.39
2023-02-27T20:11:50.255Z,59.61
2023-02-27T20:13:53.389Z,59.92
2023-02-27T20:15:59.096Z,60.34
2023-02-27T20:18:02.207Z,59.93
2023-02-27T20:20:06.676Z,60.34
2023-02-27T20:22:09.971Z,60.32
2023-02-27T20:24:14.433Z,60.33
2023-02-27T20:26:19.935Z,60.46
2023-02-27T20:28:23.857Z,60.50
2023-02-27T20:30:27.040Z,61.25
2023-02-27T20:32:31.656Z,60.75
2023-02-27T20:34:34.927Z,61.18
2023-02-27T20:36:38.908Z,60.92
2023-02-27T20:38:42.394Z,60.75
2023-02-27T20:40:45.522Z,60.97
2023-02-27T20:42:48.630Z,61.09
2023-02-27T20:44:53.273Z,61.05
2023-02-27T20:46:56.676Z,61.55
2023-02-27T20:49:02.965Z,61.16
2023-02-27T20:51:07.806Z,61.12
2023-02-27T20:53:10.986Z,61.61
2023-02-27T20:55:14.213Z,61.50
2023-02-27T20:57:17.301Z,61.43
2023-02-27T20:59:21.267Z,61.18
2023-02-27T21:01:24.503Z,61.79
2023-02-27T21:03:33.541Z,61.97
2023-02-27T21:05:49.794Z,61.48
2023-02-27T21:07:53.108Z,61.63
2023-02-27T21:09:56.353Z,61.79
2023-02-27T21:11:59.568Z,61.36
2023-02-27T21:14:05.236Z,61.13
2023-02-27T21:16:11.071Z,61.77
2023-02-27T21:18:14.723Z,61.75
2023-02-27T21:20:17.959Z,61.80
2023-02-27T21:22:22.551Z,61.36
2023-02-27T21:24:25.792Z,61.37
2023-02-27T21:26:31.907Z,61.73
2023-02-27T21:28:42.038Z,61.72
2023-02-27T21:30:45.383Z,61.65
2023-02-27T21:32:48.822Z,61.67
2023-02-27T21:34:51.941Z,61.67
2023-02-27T21:36:55.667Z,61.88
2023-02-27T21:39:01.830Z,61.79
2023-02-27T21:41:06.956Z,62.12
2023-02-27T21:43:10.197Z,61.53
2023-02-27T21:45:13.336Z,62.25
2023-02-27T21:47:16.502Z,61.71
2023-02-27T21:49:22.686Z,62.42
2023-02-27T21:51:39.445Z,61.75
2023-02-27T21:53:46.699Z,61.93
2023-02-27T21:55:51.403Z,62.41
2023-02-27T21:57:56.612Z,62.45
2023-02-27T21:59:59.740Z,62.64
2023-02-27T22:02:03.017Z,63.01
2023-02-27T22:04:06.979Z,63.17
2023-02-27T22:06:10.480Z,63.45
2023-02-27T22:08:13.889Z,63.34
2023-02-27T22:10:17.431Z,63.38
2023-02-27T22:12:23.063Z,63.72
2023-02-27T22:14:26.220Z,63.85
2023-02-27T22:16:29.535Z,63.60
2023-02-27T22:18:32.956Z,63.84
2023-02-27T22:20:36.568Z,63.63
2023-02-27T22:22:39.666Z,63.48
2023-02-27T22:24:43.141Z,63.89
2023-02-27T22:26:47.680Z,64.09
2023-02-27T22:28:52.777Z,63.96
2023-02-27T22:30:57.915Z,64.49
2023-02-27T22:33:01.131Z,64.71
2023-02-27T22:35:04.404Z,64.49
2023-02-27T22:37:07.596Z,65.19
2023-02-27T22:39:12.065Z,64.54
2023-02-27T22:41:16.979Z,64.88
2023-02-27T22:43:20.050Z,64.91
2023-02-27T22:45:24.806Z,65.14
2023-02-27T22:47:30.385Z,64.93
2023-02-27T22:49:33.793Z,64.85
2023-02-27T22:51:37.279Z,64.72
2023-02-27T22:53:41.194Z,65.07
2023-02-27T22:55:44.423Z,64.34
2023-02-27T22:57:49.970Z,65.34
2023-02-27T22:59:53.084Z,65.06
2023-02-27T23:01:57.613Z,64.62
2023-02-27T23:04:03.047Z,64.98
2023-02-27T23:06:07.289Z,64.80
2023-02-27T23:08:10.455Z,64.99
2023-02-27T23:10:13.588Z,65.10
2023-02-27T23:12:16.743Z,64.32
2023-02-27T23:14:20.876Z,64.95
2023-02-27T23:16:25.034Z,64.92
2023-02-27T23:18:29.736Z,64.75
2023-02-27T23:20:32.827Z,64.87
2023-02-27T23:22:35.953Z,64.66
2023-02-27T23:24:40.472Z,65.00
2023-02-27T23:26:45.556Z,65.28
2023-02-27T23:28:48.705Z,65.75
2023-02-27T23:30:51.823Z,65.91
2023-02-27T23:32:55.173Z,66.35
2023-02-27T23:34:59.958Z,66.05
2023-02-27T23:37:04.103Z,65.79
2023-02-27T23:39:07.888Z,66.31
2023-02-27T23:41:12.881Z,67.03
2023-02-27T23:43:16.256Z,67.14
2023-02-27T23:45:24.472Z,67.36
2023-02-27T23:47:45.596Z,67.23
2023-02-27T23:49:48.813Z,67.08
2023-02-27T23:51:53.163Z,67.40
2023-02-27T23:53:56.382Z,67.41
2023-02-27T23:55:59.558Z,67.77
2023-02-27T23:58:04.719Z,68.01
